Terminal Aerodrome Forecast
Issued by NWS

Current Version | Previous Version | Text Only | Print | Product List | Glossary On
Versions: 1 2 3 4 5 6 7 8 9 10 11 12 13 14 15 16
000
FTPA31 PHFO 170541
TAFHOG
TAF
PHOG 170541Z 1706/1806 05014G24KT P6SM FEW025 SCT050
     FM171900 06025G32KT P6SM FEW025 SCT050
     FM180500 05018G25KT P6SM FEW025 SCT050
      AMD LTD TO VIS AND WIND 1709/1716=

USA.gov is the U.S. government's official web portal to all federal, state and local government web resources and services.